Time;durP1;ratioP1;P1;durP2;ratioP2;P2;SDS_P1;SDS_P2;PMS_P1;PMS_P2;Temp;Humidity;BMP_temperature;BMP_pressure;BME280_temperature;BME280_humidity;BME280_pressure;Samples;Min_cycle;Max_cycle;Signal;HPM_P1;HPM_P2
2023/06/05 00:01:40;;;;;;;1.80;1.70;;;17.40;74.30;;;;;;5073052;28;20166;-66
2023/06/05 00:04:06;;;;;;;1.80;1.70;;;17.30;74.40;;;;;;5072362;28;20690;-65
2023/06/05 00:06:31;;;;;;;1.43;1.43;;;17.30;75.00;;;;;;5073416;28;20190;-65
2023/06/05 00:08:58;;;;;;;1.53;1.50;;;17.20;75.80;;;;;;5073689;28;20174;-66
2023/06/05 00:11:23;;;;;;;1.70;1.60;;;17.10;75.80;;;;;;5072888;28;20241;-67
2023/06/05 00:13:49;;;;;;;2.47;1.70;;;17.10;76.40;;;;;;5072725;28;20268;-65
2023/06/05 00:16:15;;;;;;;2.40;1.80;;;17.10;76.40;;;;;;5072622;28;20212;-64
2023/06/05 00:18:42;;;;;;;1.70;1.60;;;17.00;77.10;;;;;;5072668;28;20194;-65
2023/06/05 00:21:08;;;;;;;1.90;1.73;;;16.90;77.50;;;;;;5072575;28;20201;-66
2023/06/05 00:23:34;;;;;;;1.83;1.73;;;16.90;77.90;;;;;;5072670;28;20194;-67
2023/06/05 00:25:59;;;;;;;1.73;1.63;;;16.80;78.60;;;;;;5072106;28;20186;-66
2023/06/05 00:28:25;;;;;;;1.53;1.43;;;16.80;79.40;;;;;;5072609;28;20537;-66
2023/06/05 00:30:51;;;;;;;2.23;1.70;;;16.70;81.00;;;;;;5071600;28;20575;-65
2023/06/05 00:33:16;;;;;;;1.70;1.47;;;16.40;89.00;;;;;;5072096;28;20231;-66
2023/06/05 00:35:42;;;;;;;2.00;1.90;;;16.30;90.10;;;;;;5071439;28;20190;-66
2023/06/05 00:38:08;;;;;;;1.83;1.70;;;16.30;94.10;;;;;;5072549;28;20193;-66
2023/06/05 00:40:34;;;;;;;1.60;1.50;;;15.80;99.40;;;;;;5071669;28;20181;-65
2023/06/05 00:43:00;;;;;;;1.83;1.73;;;15.90;96.70;;;;;;5072389;28;20205;-65
2023/06/05 00:45:25;;;;;;;1.60;1.50;;;16.00;96.00;;;;;;5071850;28;20189;-65
2023/06/05 00:47:51;;;;;;;3.40;1.70;;;15.70;99.90;;;;;;5071471;28;20734;-66
2023/06/05 00:50:17;;;;;;;1.67;1.57;;;15.60;99.90;;;;;;5072037;28;20249;-65
2023/06/05 00:52:44;;;;;;;1.70;1.60;;;15.60;99.90;;;;;;5072185;28;20630;-65
2023/06/05 00:55:11;;;;;;;2.47;1.80;;;15.50;99.90;;;;;;5072572;28;20653;-66
2023/06/05 00:57:38;;;;;;;2.23;1.60;;;15.50;99.90;;;;;;5072697;28;20399;-64
2023/06/05 01:00:07;;;;;;;1.60;1.50;;;15.50;99.90;;;;;;5071914;28;20633;-65
2023/06/05 01:02:34;;;;;;;1.70;1.60;;;15.50;99.90;;;;;;5072865;28;20174;-65
2023/06/05 01:04:59;;;;;;;2.03;1.63;;;15.60;99.90;;;;;;5071421;28;20197;-64
2023/06/05 01:07:27;;;;;;;1.83;1.67;;;15.60;99.90;;;;;;5071804;28;20654;-65
2023/06/05 01:09:54;;;;;;;1.77;1.67;;;15.40;99.90;;;;;;5071284;28;20241;-65
2023/06/05 01:12:33;;;;;;;4.17;1.70;;;15.50;99.90;;;;;;5071803;28;20212;-66
2023/06/05 01:15:01;;;;;;;1.50;1.40;;;15.50;99.90;;;;;;5070908;28;20181;-66
2023/06/05 01:17:28;;;;;;;1.47;1.37;;;15.40;99.90;;;;;;5071904;28;20178;-66
2023/06/05 01:19:54;;;;;;;2.07;1.83;;;15.30;99.90;;;;;;5045484;28;20166;-66
2023/06/05 01:22:21;;;;;;;2.30;1.60;;;15.30;99.90;;;;;;5071244;28;20166;-65
2023/06/05 01:24:47;;;;;;;1.70;1.60;;;15.10;99.90;;;;;;5045397;28;20178;-65
2023/06/05 01:27:25;;;;;;;1.70;1.60;;;14.60;99.90;;;;;;5071470;28;20520;-65
2023/06/05 01:30:01;;;;;;;1.53;1.43;;;14.30;99.90;;;;;;5071558;28;20177;-65
2023/06/05 01:32:40;;;;;;;2.40;2.20;;;14.10;99.90;;;;;;5071651;28;20173;-65
2023/06/05 01:35:08;;;;;;;1.77;1.67;;;14.10;99.90;;;;;;5059645;28;20643;-65
2023/06/05 01:37:40;;;;;;;1.70;1.60;;;13.80;99.90;;;;;;5070207;28;20173;-65
2023/06/05 01:40:12;;;;;;;2.73;1.80;;;13.80;99.90;;;;;;5070502;28;20170;-66
2023/06/05 01:42:39;;;;;;;4.07;2.07;;;13.90;99.90;;;;;;5071590;28;20209;-65
2023/06/05 01:45:07;;;;;;;2.17;1.60;;;13.70;99.90;;;;;;5071060;28;20161;-65
2023/06/05 01:47:34;;;;;;;2.07;1.97;;;13.80;99.90;;;;;;5071227;28;20173;-65
2023/06/05 01:50:00;;;;;;;3.07;1.57;;;13.90;99.90;;;;;;5068630;28;20224;-65
2023/06/05 01:52:25;;;;;;;1.63;1.53;;;13.90;99.90;;;;;;5059113;28;20669;-64
2023/06/05 01:54:52;;;;;;;1.67;1.57;;;13.90;99.90;;;;;;5070815;28;20174;-65
2023/06/05 01:57:18;;;;;;;1.73;1.30;;;13.50;99.90;;;;;;5071377;28;20626;-65
2023/06/05 01:59:45;;;;;;;1.73;1.63;;;13.00;99.90;;;;;;5071724;28;20343;-65
2023/06/05 02:02:11;;;;;;;2.73;1.60;;;13.00;99.90;;;;;;5067446;28;20539;-65
2023/06/05 02:04:37;;;;;;;1.37;1.27;;;12.80;99.90;;;;;;5068506;28;20180;-65
2023/06/05 02:07:05;;;;;;;1.70;1.60;;;12.80;99.90;;;;;;5063977;28;20193;-64
2023/06/05 02:09:34;;;;;;;1.90;1.80;;;12.90;99.90;;;;;;5073249;28;20169;-66
2023/06/05 02:12:03;;;;;;;5.27;1.87;;;13.00;99.90;;;;;;5064426;28;20658;-64
2023/06/05 02:14:32;;;;;;;1.57;1.43;;;12.80;99.90;;;;;;5074773;28;20582;-65
2023/06/05 02:16:58;;;;;;;2.00;1.80;;;12.40;99.90;;;;;;5074752;28;20205;-65
2023/06/05 02:19:24;;;;;;;1.80;1.70;;;12.50;99.90;;;;;;5075197;28;20205;-65
2023/06/05 02:21:53;;;;;;;2.47;1.80;;;12.50;99.90;;;;;;5074798;28;20219;-65
2023/06/05 02:24:18;;;;;;;2.00;1.80;;;12.50;99.90;;;;;;5074790;28;20216;-66
2023/06/05 02:26:44;;;;;;;1.53;1.43;;;12.50;99.90;;;;;;5074656;28;20225;-66
2023/06/05 02:29:10;;;;;;;1.90;1.80;;;12.40;99.90;;;;;;5061390;28;20243;-65
2023/06/05 02:31:36;;;;;;;2.43;2.07;;;12.40;99.90;;;;;;5075363;28;20662;-64
2023/06/05 02:34:02;;;;;;;1.77;1.57;;;12.50;99.90;;;;;;5074418;28;20174;-66
2023/06/05 02:36:32;;;;;;;1.83;1.73;;;12.70;99.90;;;;;;5074418;28;20236;-65
2023/06/05 02:38:59;;;;;;;2.00;1.73;;;12.20;99.90;;;;;;5070844;28;20731;-65
2023/06/05 02:41:26;;;;;;;1.97;1.87;;;12.20;99.90;;;;;;5064907;28;20176;-66
2023/06/05 02:43:53;;;;;;;1.60;1.50;;;12.30;99.90;;;;;;5074356;28;20166;-65
2023/06/05 02:46:19;;;;;;;1.57;1.43;;;12.60;99.90;;;;;;5074296;28;20189;-65
2023/06/05 02:48:44;;;;;;;1.70;1.60;;;12.30;99.90;;;;;;5074288;28;20640;-65
2023/06/05 02:51:13;;;;;;;1.93;1.47;;;12.50;99.90;;;;;;5074540;28;20178;-65
2023/06/05 02:53:39;;;;;;;2.37;1.90;;;12.40;99.90;;;;;;5074217;28;20633;-65
2023/06/05 02:56:05;;;;;;;3.20;1.70;;;12.50;99.90;;;;;;5074053;28;20229;-65
2023/06/05 02:58:33;;;;;;;3.00;1.70;;;12.60;99.90;;;;;;5074160;28;20205;-65
2023/06/05 03:01:02;;;;;;;3.73;1.90;;;12.60;99.90;;;;;;5074271;28;20201;-64
2023/06/05 03:03:32;;;;;;;1.97;1.83;;;12.40;99.90;;;;;;5074068;28;20166;-64
2023/06/05 03:06:04;;;;;;;1.53;1.43;;;12.40;99.90;;;;;;5073793;28;20662;-64
2023/06/05 03:08:34;;;;;;;1.80;1.70;;;12.30;99.90;;;;;;5041367;28;20181;-66
2023/06/05 03:11:04;;;;;;;1.40;1.30;;;12.40;99.90;;;;;;5067830;28;20267;-66
2023/06/05 03:13:30;;;;;;;1.67;1.57;;;12.40;99.90;;;;;;5073971;28;20255;-65
2023/06/05 03:15:57;;;;;;;1.90;1.80;;;12.40;99.90;;;;;;5073609;28;20754;-65
2023/06/05 03:18:25;;;;;;;2.40;2.03;;;12.30;99.90;;;;;;5073954;28;20224;-66
2023/06/05 03:20:55;;;;;;;1.70;1.60;;;11.80;99.90;;;;;;5072258;28;20170;-66
2023/06/05 03:23:24;;;;;;;2.10;1.90;;;;;;;;;;5073219;28;20169;-66
2023/06/05 03:25:51;;;;;;;2.07;1.93;;;11.60;99.90;;;;;;5071611;28;20218;-65
2023/06/05 03:28:17;;;;;;;1.80;1.70;;;11.60;99.90;;;;;;5073724;28;20258;-66
2023/06/05 03:30:43;;;;;;;3.07;1.60;;;11.50;99.90;;;;;;5073624;28;20173;-65
2023/06/05 03:33:09;;;;;;;1.60;1.50;;;11.40;99.90;;;;;;5073955;28;20224;-65
2023/06/05 03:35:34;;;;;;;2.00;1.70;;;11.50;99.90;;;;;;5071597;28;20555;-65
2023/06/05 03:38:01;;;;;;;1.80;1.70;;;11.50;99.90;;;;;;5073821;28;20198;-65
2023/06/05 03:40:26;;;;;;;1.90;1.67;;;11.50;99.90;;;;;;5073939;28;20197;-66
2023/06/05 03:42:52;;;;;;;1.70;1.60;;;11.40;99.90;;;;;;5073272;28;20170;-65
2023/06/05 03:45:18;;;;;;;1.83;1.73;;;11.50;99.90;;;;;;5060118;28;20170;-66
2023/06/05 03:47:46;;;;;;;1.90;1.60;;;11.60;99.90;;;;;;5073509;28;20509;-65
2023/06/05 03:50:12;;;;;;;1.77;1.67;;;11.30;99.90;;;;;;5072766;28;20162;-65
2023/06/05 03:52:39;;;;;;;2.73;2.30;;;11.20;99.90;;;;;;5072868;28;20173;-65
2023/06/05 03:55:07;;;;;;;1.90;1.80;;;11.20;99.90;;;;;;5073045;28;20173;-65
2023/06/05 03:57:33;;;;;;;1.93;1.83;;;11.20;99.90;;;;;;5071655;28;20189;-66
2023/06/05 03:59:59;;;;;;;1.67;1.57;;;11.20;99.90;;;;;;5073484;28;20174;-66
2023/06/05 04:02:25;;;;;;;2.07;1.53;;;11.20;99.90;;;;;;5073121;28;20177;-66
2023/06/05 04:04:51;;;;;;;1.87;1.77;;;11.30;99.90;;;;;;5072735;28;20547;-65
2023/06/05 04:07:17;;;;;;;1.83;1.60;;;11.20;99.90;;;;;;5072781;28;20627;-65
2023/06/05 04:09:42;;;;;;;2.17;1.77;;;11.30;99.90;;;;;;5072935;28;20538;-66
2023/06/05 04:12:10;;;;;;;2.00;1.90;;;11.40;99.90;;;;;;5066339;28;20189;-66
2023/06/05 04:14:36;;;;;;;1.57;1.47;;;11.60;99.90;;;;;;5072678;28;20223;-65
2023/06/05 04:17:02;;;;;;;2.03;1.67;;;11.60;99.90;;;;;;5072980;28;20194;-65
2023/06/05 04:19:28;;;;;;;1.83;1.73;;;11.70;99.90;;;;;;5071164;28;20201;-65
2023/06/05 04:21:53;;;;;;;1.83;1.73;;;11.50;99.90;;;;;;5071815;28;20170;-66
2023/06/05 04:24:19;;;;;;;1.63;1.53;;;11.40;99.90;;;;;;5072302;28;20181;-65
2023/06/05 04:26:45;;;;;;;1.50;1.50;;;11.80;99.90;;;;;;5071909;28;20611;-65
2023/06/05 04:29:15;;;;;;;1.57;1.43;;;11.90;99.90;;;;;;5072795;28;20177;-66
2023/06/05 04:31:45;;;;;;;1.80;1.70;;;12.00;99.90;;;;;;5059156;28;20178;-66
2023/06/05 04:34:12;;;;;;;3.27;1.80;;;12.10;99.90;;;;;;5072012;28;20637;-66
2023/06/05 04:36:38;;;;;;;2.23;1.50;;;12.30;99.90;;;;;;5072310;28;20200;-66
2023/06/05 04:39:06;;;;;;;1.90;1.50;;;12.40;99.90;;;;;;5071899;28;20275;-67
2023/06/05 04:41:32;;;;;;;2.30;1.40;;;12.50;99.90;;;;;;5072515;28;20170;-66
2023/06/05 04:43:59;;;;;;;1.80;1.70;;;12.80;99.90;;;;;;5072043;28;20181;-66
2023/06/05 04:46:25;;;;;;;1.60;1.50;;;13.10;99.90;;;;;;5072179;28;20272;-65
2023/06/05 04:48:55;;;;;;;1.80;1.70;;;13.30;99.90;;;;;;5071781;28;20181;-65
2023/06/05 04:51:21;;;;;;;3.87;1.77;;;13.40;99.90;;;;;;5071640;28;20174;-65
2023/06/05 04:53:50;;;;;;;1.93;1.73;;;14.20;99.90;;;;;;5071848;28;20257;-64
2023/06/05 04:56:16;;;;;;;3.33;1.60;;;14.50;99.90;;;;;;5071679;28;20209;-64
2023/06/05 04:58:42;;;;;;;1.90;1.10;;;15.10;99.90;;;;;;5071875;28;20226;-64
2023/06/05 05:01:08;;;;;;;1.50;1.40;;;15.40;99.90;;;;;;5071905;28;20584;-66
2023/06/05 05:03:33;;;;;;;1.60;1.10;;;15.40;99.90;;;;;;5071536;28;20256;-66
2023/06/05 05:06:00;;;;;;;1.95;1.42;;;15.30;99.90;;;;;;5045185;28;20265;-65
2023/06/05 05:08:27;;;;;;;1.88;1.40;;;15.60;99.90;;;;;;5072068;28;20193;-65
2023/06/05 05:10:53;;;;;;;2.58;1.42;;;15.80;99.90;;;;;;5066074;28;20174;-65
2023/06/05 05:13:19;;;;;;;1.40;1.30;;;15.80;99.90;;;;;;5063943;28;20185;-65
2023/06/05 05:15:46;;;;;;;1.97;1.60;;;15.90;99.90;;;;;;5071482;28;20196;-65
2023/06/05 05:18:12;;;;;;;1.40;1.30;;;16.00;99.90;;;;;;5070589;28;20196;-66
2023/06/05 05:20:38;;;;;;;1.43;1.20;;;16.10;99.90;;;;;;5070557;28;20178;-66
2023/06/05 05:23:04;;;;;;;1.40;1.33;;;16.50;99.90;;;;;;5071739;28;20223;-65
2023/06/05 05:25:29;;;;;;;1.20;1.10;;;16.80;99.90;;;;;;5071277;28;20193;-65
2023/06/05 05:27:55;;;;;;;1.40;1.30;;;17.00;99.90;;;;;;5071935;28;20172;-65
2023/06/05 05:30:21;;;;;;;1.20;1.10;;;17.00;99.90;;;;;;5071151;28;20632;-66
2023/06/05 05:32:46;;;;;;;1.13;1.10;;;17.00;99.90;;;;;;5071587;28;20186;-65
2023/06/05 05:35:12;;;;;;;0.90;0.90;;;17.00;99.90;;;;;;5070781;28;20208;-65
2023/06/05 05:37:37;;;;;;;1.10;1.10;;;17.00;99.90;;;;;;5072111;28;20207;-66
2023/06/05 05:40:04;;;;;;;2.97;1.33;;;17.00;99.90;;;;;;5069196;28;20628;-66
2023/06/05 05:42:30;;;;;;;1.73;1.30;;;17.10;99.90;;;;;;5062855;28;20167;-65
2023/06/05 05:44:55;;;;;;;1.53;1.43;;;17.20;99.90;;;;;;5044088;28;20184;-65
2023/06/05 05:47:21;;;;;;;1.10;1.10;;;17.40;99.90;;;;;;5055254;28;20196;-67
2023/06/05 05:49:46;;;;;;;2.57;1.17;;;17.90;99.90;;;;;;5056135;28;20215;-65
2023/06/05 05:52:12;;;;;;;4.70;1.40;;;18.10;99.90;;;;;;5064566;28;20173;-66
2023/06/05 05:54:38;;;;;;;2.60;1.20;;;17.70;99.90;;;;;;5061163;28;20238;-65
2023/06/05 05:57:04;;;;;;;1.50;1.03;;;17.60;99.90;;;;;;5071331;28;20254;-65
2023/06/05 05:59:30;;;;;;;1.87;1.17;;;17.60;99.90;;;;;;5071352;28;20203;-65
2023/06/05 06:01:58;;;;;;;1.77;1.10;;;17.70;99.90;;;;;;5071471;23;20227;-68
2023/06/05 06:04:23;;;;;;;1.40;1.30;;;17.80;99.90;;;;;;5051388;28;20201;-68
2023/06/05 06:06:52;;;;;;;1.67;1.27;;;17.90;99.90;;;;;;5053546;28;20204;-67
2023/06/05 06:09:18;;;;;;;2.40;1.40;;;18.00;99.90;;;;;;5042307;28;20173;-68
2023/06/05 06:11:44;;;;;;;1.40;1.30;;;18.00;99.90;;;;;;5035112;28;20187;-68
2023/06/05 06:14:10;;;;;;;0.90;0.90;;;18.00;99.10;;;;;;5053330;28;20184;-67
2023/06/05 06:16:40;;;;;;;2.40;1.37;;;18.00;99.00;;;;;;5053483;28;20194;-68
2023/06/05 06:19:05;;;;;;;1.90;1.13;;;18.00;98.50;;;;;;5053099;28;20191;-67
2023/06/05 06:21:31;;;;;;;2.70;1.30;;;18.20;99.60;;;;;;5035231;28;20692;-68
2023/06/05 06:23:57;;;;;;;1.50;1.10;;;18.40;99.30;;;;;;5014384;28;20215;-67
2023/06/05 06:26:23;;;;;;;1.20;1.10;;;18.50;98.60;;;;;;5047642;28;20196;-68
2023/06/05 06:28:48;;;;;;;1.27;1.20;;;18.60;98.50;;;;;;5047220;28;20655;-68
2023/06/05 06:31:14;;;;;;;2.20;1.40;;;18.70;98.30;;;;;;5033548;28;20613;-67
2023/06/05 06:33:40;;;;;;;1.03;0.97;;;18.60;97.10;;;;;;5029144;28;20206;-67
2023/06/05 06:36:06;;;;;;;2.60;1.20;;;18.80;96.40;;;;;;5030994;28;20209;-67
2023/06/05 06:38:39;;;;;;;1.30;1.20;;;18.70;95.40;;;;;;5035452;28;20724;-67
2023/06/05 06:41:10;;;;;;;1.23;1.13;;;18.80;96.00;;;;;;5052811;28;20587;-67
2023/06/05 06:43:36;;;;;;;2.17;1.30;;;18.90;96.10;;;;;;5037001;28;20265;-66
2023/06/05 06:46:02;;;;;;;1.10;1.10;;;18.90;95.60;;;;;;5028778;28;20279;-67
2023/06/05 06:48:27;;;;;;;4.70;1.23;;;19.20;96.10;;;;;;5057138;28;20269;-68
2023/06/05 06:50:53;;;;;;;1.37;1.20;;;19.20;94.10;;;;;;5035970;28;20170;-68
2023/06/05 06:53:19;;;;;;;1.67;1.17;;;19.30;93.20;;;;;;5046961;28;20181;-69
2023/06/05 06:55:44;;;;;;;1.30;1.20;;;19.30;94.60;;;;;;5040972;28;20226;-68
2023/06/05 06:58:10;;;;;;;1.57;1.30;;;19.40;92.50;;;;;;5047537;28;20640;-68
2023/06/05 07:00:36;;;;;;;2.58;1.42;;;19.40;92.80;;;;;;5056353;28;20180;-67
2023/06/05 07:03:02;;;;;;;2.65;1.40;;;19.30;92.90;;;;;;5055703;28;20178;-69
2023/06/05 07:05:27;;;;;;;2.80;1.42;;;19.40;93.40;;;;;;5036610;28;20194;-66
2023/06/05 07:07:53;;;;;;;1.07;1.07;;;19.50;93.30;;;;;;5055725;28;20262;-69
2023/06/05 07:10:19;;;;;;;1.10;1.10;;;19.60;90.80;;;;;;5054630;28;20627;-68
2023/06/05 07:12:44;;;;;;;1.20;1.13;;;19.70;91.90;;;;;;5026687;28;20181;-67
2023/06/05 07:15:10;;;;;;;2.35;1.40;;;19.80;91.10;;;;;;5055165;28;20167;-67
2023/06/05 07:17:36;;;;;;;1.50;1.40;;;19.80;88.60;;;;;;5055875;28;20219;-68
2023/06/05 07:20:04;;;;;;;2.53;1.33;;;19.90;89.70;;;;;;5055451;28;20190;-68
2023/06/05 07:22:30;;;;;;;1.17;1.08;;;20.00;87.50;;;;;;5055571;28;20254;-68
2023/06/05 07:24:56;;;;;;;2.35;1.35;;;20.00;88.50;;;;;;5055438;28;20256;-67
2023/06/05 07:27:22;;;;;;;1.48;1.38;;;20.10;83.80;;;;;;5041176;28;20191;-67
2023/06/05 07:29:48;;;;;;;2.33;1.30;;;20.30;84.70;;;;;;5044200;28;20167;-66
2023/06/05 07:32:13;;;;;;;1.85;1.50;;;20.20;88.40;;;;;;5047277;28;20183;-68
2023/06/05 07:34:39;;;;;;;1.45;1.02;;;20.20;85.20;;;;;;5055136;28;20178;-67
2023/06/05 07:37:07;;;;;;;1.17;1.17;;;20.20;84.70;;;;;;5055462;28;20202;-68
2023/06/05 07:39:34;;;;;;;1.30;1.20;;;20.20;83.80;;;;;;5054563;28;20256;-68
2023/06/05 07:41:59;;;;;;;2.10;1.55;;;20.30;86.90;;;;;;5027821;28;20648;-68
2023/06/05 07:44:25;;;;;;;1.48;1.38;;;20.40;81.10;;;;;;5043167;28;20222;-68
2023/06/05 07:46:51;;;;;;;1.75;1.40;;;20.40;81.50;;;;;;5029659;28;20258;-68
2023/06/05 07:49:17;;;;;;;2.95;1.27;;;20.30;81.10;;;;;;5055373;28;20685;-67
2023/06/05 07:51:46;;;;;;;1.60;1.20;;;20.60;80.70;;;;;;5036259;28;20697;-67
2023/06/05 07:54:13;;;;;;;1.65;1.10;;;20.70;81.90;;;;;;5037177;28;20214;-67
2023/06/05 07:56:39;;;;;;;1.40;1.30;;;20.60;79.40;;;;;;5029678;28;20540;-67
2023/06/05 07:59:06;;;;;;;1.65;1.20;;;20.70;78.70;;;;;;5043568;28;20232;-67
2023/06/05 08:01:36;;;;;;;1.58;1.33;;;20.80;77.20;;;;;;5054919;28;20216;-68
2023/06/05 08:04:10;;;;;;;1.73;1.30;;;20.90;80.50;;;;;;5050352;28;20186;-68
2023/06/05 08:06:37;;;;;;;2.03;1.52;;;21.10;80.00;;;;;;5045491;28;20202;-69
2023/06/05 08:09:09;;;;;;;1.48;1.10;;;20.90;83.10;;;;;;5055869;28;20511;-68
2023/06/05 08:11:38;;;;;;;1.48;1.38;;;21.10;82.00;;;;;;5054419;28;20635;-67
2023/06/05 08:14:06;;;;;;;2.83;1.52;;;21.10;80.60;;;;;;5042149;28;20167;-67
2023/06/05 08:16:32;;;;;;;2.42;1.48;;;21.30;82.60;;;;;;5054356;28;20198;-66
2023/06/05 08:18:57;;;;;;;1.58;1.48;;;21.20;78.20;;;;;;5054112;28;20202;-68
2023/06/05 08:21:23;;;;;;;2.80;1.45;;;21.30;81.20;;;;;;5023460;28;20537;-68
2023/06/05 08:23:49;;;;;;;1.63;1.52;;;21.50;77.80;;;;;;5033595;28;20206;-68
2023/06/05 08:26:14;;;;;;;1.52;1.42;;;21.70;83.10;;;;;;5053117;28;20190;-68
2023/06/05 08:28:41;;;;;;;1.63;1.52;;;21.50;78.80;;;;;;5043961;28;20178;-68
2023/06/05 08:31:10;;;;;;;1.50;1.40;;;21.50;81.60;;;;;;5054031;28;20181;-68
2023/06/05 08:33:37;;;;;;;1.30;1.30;;;21.60;78.90;;;;;;5051122;28;20262;-67
2023/06/05 08:36:03;;;;;;;3.08;1.95;;;21.80;78.50;;;;;;5031304;28;20190;-67
2023/06/05 08:38:30;;;;;;;1.55;1.33;;;21.70;77.30;;;;;;5022034;28;20194;-67
2023/06/05 08:41:10;;;;;;;6.35;1.85;;;21.60;78.10;;;;;;5053082;28;20186;-69
2023/06/05 08:43:40;;;;;;;2.85;1.48;;;22.10;81.50;;;;;;5050991;28;20180;-68
2023/06/05 08:46:09;;;;;;;1.70;1.60;;;22.00;77.70;;;;;;5053962;28;20225;-69
2023/06/05 08:48:46;;;;;;;3.53;1.88;;;21.90;79.20;;;;;;5053806;28;20308;-70
2023/06/05 08:51:17;;;;;;;1.63;1.48;;;21.90;80.00;;;;;;5054323;28;20193;-70
2023/06/05 08:54:06;;;;;;;2.67;1.70;;;22.10;79.90;;;;;;5054062;28;20253;-71
2023/06/05 08:56:33;;;;;;;2.08;1.63;;;22.20;79.20;;;;;;5053495;28;20319;-70
2023/06/05 08:58:59;;;;;;;1.60;1.50;;;22.20;78.10;;;;;;5042792;28;20651;-71
2023/06/05 09:01:26;;;;;;;1.70;1.60;;;22.30;81.10;;;;;;5053242;28;20186;-70
2023/06/05 09:03:51;;;;;;;2.97;1.77;;;22.30;80.70;;;;;;5035355;28;20184;-71
2023/06/05 09:06:17;;;;;;;2.10;1.90;;;22.50;80.80;;;;;;5051365;28;20914;-71
2023/06/05 09:08:44;;;;;;;1.98;1.45;;;22.60;82.60;;;;;;5052636;28;20183;-70
2023/06/05 09:11:36;;;;;;;3.25;1.50;;;22.60;81.30;;;;;;5049169;28;20198;-71
2023/06/05 09:14:02;;;;;;;1.80;1.70;;;22.50;80.30;;;;;;5037929;28;20190;-70
2023/06/05 09:16:44;;;;;;;2.88;1.50;;;22.50;81.70;;;;;;5053370;28;20623;-72
2023/06/05 09:19:11;;;;;;;2.63;1.40;;;22.80;83.50;;;;;;5045590;28;20201;-71
2023/06/05 09:21:36;;;;;;;1.60;1.48;;;23.00;78.90;;;;;;5047247;28;20642;-71
2023/06/05 09:24:19;;;;;;;2.05;1.90;;;23.20;78.40;;;;;;5048336;28;20171;-70
2023/06/05 09:26:59;;;;;;;2.38;1.60;;;22.80;81.50;;;;;;5043027;28;20179;-69
2023/06/05 09:29:32;;;;;;;1.90;1.77;;;23.70;76.40;;;;;;5044455;28;20273;-70
2023/06/05 09:32:03;;;;;;;3.80;1.70;;;23.90;82.00;;;;;;5034726;28;20178;-71
2023/06/05 09:34:29;;;;;;;2.25;1.67;;;23.80;78.50;;;;;;5027785;28;20183;-70
2023/06/05 09:37:08;;;;;;;2.63;1.45;;;23.70;75.80;;;;;;5036917;28;20261;-70
2023/06/05 09:39:36;;;;;;;2.67;1.70;;;23.80;78.60;;;;;;5019440;28;20278;-70
2023/06/05 09:42:02;;;;;;;3.53;2.20;;;24.10;77.40;;;;;;5028245;28;20168;-72
2023/06/05 09:44:29;;;;;;;3.58;1.85;;;24.00;74.80;;;;;;5030983;28;20257;-70
2023/06/05 09:47:00;;;;;;;1.85;1.75;;;23.80;77.00;;;;;;5035039;28;20213;-70
2023/06/05 09:49:28;;;;;;;1.98;1.88;;;23.60;77.10;;;;;;5038387;28;20194;-70
2023/06/05 09:51:56;;;;;;;1.95;1.77;;;23.60;77.90;;;;;;5002237;28;20179;-70
2023/06/05 09:54:24;;;;;;;1.85;1.70;;;23.70;79.60;;;;;;5036409;28;20178;-71
2023/06/05 09:56:50;;;;;;;3.33;1.88;;;23.90;78.70;;;;;;5036923;28;20186;-70
2023/06/05 09:59:29;;;;;;;3.63;1.73;;;24.10;78.90;;;;;;5041352;28;20188;-71
2023/06/05 10:01:56;;;;;;;2.55;2.10;;;23.90;77.10;;;;;;5009415;28;20218;-71
2023/06/05 10:04:24;;;;;;;2.05;1.95;;;23.70;81.00;;;;;;5036467;28;20175;-70
2023/06/05 10:06:52;;;;;;;2.65;1.80;;;24.10;79.50;;;;;;5051460;28;20643;-70
2023/06/05 10:09:18;;;;;;;1.80;1.70;;;24.30;80.20;;;;;;5053182;28;20208;-71
2023/06/05 10:11:48;;;;;;;2.15;1.95;;;24.70;80.10;;;;;;5053075;28;20654;-71
2023/06/05 10:14:15;;;;;;;2.55;2.35;;;24.60;77.80;;;;;;5029618;28;20656;-71
2023/06/05 10:16:42;;;;;;;2.17;2.00;;;24.00;77.30;;;;;;5015034;28;20250;-71
2023/06/05 10:19:08;;;;;;;2.20;2.10;;;24.00;77.60;;;;;;5022666;28;20687;-70
2023/06/05 10:21:35;;;;;;;1.92;1.83;;;24.10;78.20;;;;;;5036974;28;20182;-70
2023/06/05 10:24:08;;;;;;;2.83;1.80;;;24.40;78.70;;;;;;5056605;28;20194;-71
2023/06/05 10:26:51;;;;;;;4.50;2.10;;;24.60;76.80;;;;;;5057331;28;20183;-71
2023/06/05 10:29:27;;;;;;;2.90;2.20;;;24.60;76.50;;;;;;5032613;28;20620;-72
2023/06/05 10:32:03;;;;;;;2.67;1.98;;;25.10;80.40;;;;;;5026263;28;20186;-70
2023/06/05 10:34:38;;;;;;;3.03;1.90;;;25.30;75.20;;;;;;5031765;28;20177;-70
2023/06/05 10:37:29;;;;;;;2.53;2.03;;;24.70;72.90;;;;;;5055726;28;20193;-69
2023/06/05 10:39:56;;;;;;;2.28;1.85;;;24.80;73.00;;;;;;5036373;28;20261;-70
2023/06/05 10:42:29;;;;;;;2.03;1.77;;;25.10;76.10;;;;;;5015902;28;20176;-70
2023/06/05 10:44:55;;;;;;;2.15;2.00;;;24.70;71.50;;;;;;5017132;28;20262;-70
2023/06/05 10:47:32;;;;;;;2.30;2.10;;;24.70;71.60;;;;;;5054618;28;20281;-71
2023/06/05 10:50:17;;;;;;;3.88;1.83;;;25.10;73.30;;;;;;5043748;28;20167;-69
2023/06/05 10:52:44;;;;;;;2.65;2.10;;;24.70;71.80;;;;;;5046368;28;20180;-70
2023/06/05 10:55:12;;;;;;;2.70;1.88;;;25.00;69.30;;;;;;5036234;28;20186;-70
2023/06/05 10:58:09;;;;;;;2.40;2.20;;;25.10;69.20;;;;;;5046969;28;20167;-70
2023/06/05 11:00:38;;;;;;;3.30;2.10;;;25.10;69.90;;;;;;5033731;28;20501;-70
2023/06/05 11:03:06;;;;;;;3.78;1.75;;;25.00;70.50;;;;;;5043795;28;20190;-70
2023/06/05 11:05:31;;;;;;;2.60;1.90;;;25.30;68.80;;;;;;5049315;28;20281;-70
2023/06/05 11:08:14;;;;;;;3.25;1.90;;;25.50;70.50;;;;;;5036314;28;20205;-70
2023/06/05 11:11:06;;;;;;;4.88;2.17;;;25.40;69.20;;;;;;5043173;28;20162;-70
2023/06/05 11:13:58;;;;;;;3.28;2.00;;;25.50;68.40;;;;;;5055771;28;20254;-71
2023/06/05 11:16:27;;;;;;;5.32;2.05;;;25.80;65.20;;;;;;5038026;28;20616;-71
2023/06/05 11:18:54;;;;;;;4.65;2.00;;;26.00;66.00;;;;;;5016934;28;20746;-70
2023/06/05 11:21:19;;;;;;;2.50;2.30;;;25.90;62.30;;;;;;5035800;28;20531;-70
2023/06/05 11:24:15;;;;;;;4.00;1.95;;;25.70;64.00;;;;;;5035596;28;20173;-71
2023/06/05 11:26:44;;;;;;;2.15;2.05;;;26.40;65.10;;;;;;5018678;28;20198;-71
2023/06/05 11:29:15;;;;;;;2.22;1.80;;;26.20;63.00;;;;;;5023729;28;20168;-72
2023/06/05 11:31:43;;;;;;;3.15;2.10;;;26.20;62.50;;;;;;5028722;28;20178;-72
2023/06/05 11:34:14;;;;;;;2.38;2.10;;;26.30;59.30;;;;;;5023483;28;20175;-71
2023/06/05 11:36:40;;;;;;;2.33;2.08;;;26.40;61.80;;;;;;5040785;28;20682;-72
2023/06/05 11:39:05;;;;;;;2.00;1.90;;;26.40;60.70;;;;;;5055471;28;20190;-72
2023/06/05 11:41:32;;;;;;;6.80;2.35;;;26.70;60.00;;;;;;5055651;28;20170;-72
2023/06/05 11:43:57;;;;;;;2.22;1.95;;;26.40;59.00;;;;;;5051151;28;20182;-72
2023/06/05 11:46:37;;;;;;;1.83;1.75;;;26.80;59.60;;;;;;5035599;28;20633;-71
2023/06/05 11:49:04;;;;;;;2.40;2.20;;;26.30;59.00;;;;;;5035174;28;20159;-72
2023/06/05 11:51:37;;;;;;;2.90;2.30;;;26.70;59.50;;;;;;5035875;28;20262;-72
2023/06/05 11:54:04;;;;;;;2.40;2.20;;;26.90;60.00;;;;;;5042496;28;20245;-72
2023/06/05 11:56:32;;;;;;;2.28;2.10;;;26.70;58.80;;;;;;5055940;28;20213;-71
2023/06/05 11:58:57;;;;;;;2.47;2.28;;;26.60;58.00;;;;;;5055607;28;20200;-71
2023/06/05 12:01:25;;;;;;;3.22;2.30;;;27.00;58.40;;;;;;5057796;23;20179;-76
2023/06/05 12:04:07;;;;;;;2.67;2.42;;;26.80;56.90;;;;;;5039523;28;20179;-75
2023/06/05 12:06:41;;;;;;;2.63;2.42;;;27.10;55.60;;;;;;5050638;28;20258;-76
2023/06/05 12:09:11;;;;;;;2.85;2.50;;;27.10;56.90;;;;;;5052472;28;20265;-75
2023/06/05 12:11:41;;;;;;;2.53;2.33;;;26.10;59.30;;;;;;5043983;28;20563;-76
2023/06/05 12:14:07;;;;;;;3.17;2.72;;;26.80;57.90;;;;;;5052160;28;20201;-76
2023/06/05 12:16:37;;;;;;;2.72;2.38;;;27.20;55.70;;;;;;5052162;28;20652;-75
2023/06/05 12:19:12;;;;;;;2.70;2.50;;;26.30;59.30;;;;;;5052149;28;20687;-74
2023/06/05 12:21:37;;;;;;;2.70;2.50;;;26.10;58.90;;;;;;5051713;28;20197;-77
2023/06/05 12:24:05;;;;;;;2.88;2.67;;;26.90;56.50;;;;;;5047214;28;20170;-76
2023/06/05 12:26:48;;;;;;;3.42;2.47;;;27.20;53.00;;;;;;5050560;28;20248;-76
2023/06/05 12:29:13;;;;;;;3.85;2.60;;;27.60;56.00;;;;;;5051685;28;20170;-77
2023/06/05 12:31:39;;;;;;;3.90;2.58;;;28.10;58.50;;;;;;5052013;28;20205;-77
2023/06/05 12:34:05;;;;;;;3.10;2.42;;;28.10;57.70;;;;;;5052961;28;20562;-77
2023/06/05 12:36:37;;;;;;;2.50;2.30;;;27.90;53.00;;;;;;5051690;28;20603;-77
2023/06/05 12:39:06;;;;;;;3.25;2.88;;;27.80;52.60;;;;;;5053012;28;20194;-77
2023/06/05 12:41:33;;;;;;;2.72;2.50;;;28.10;52.20;;;;;;5052670;28;20199;-77
2023/06/05 12:44:07;;;;;;;2.60;2.40;;;27.20;52.20;;;;;;5049378;28;20255;-77
2023/06/05 12:46:34;;;;;;;2.78;2.53;;;26.50;54.40;;;;;;5040363;28;20252;-77
2023/06/05 12:49:00;;;;;;;2.60;2.40;;;26.50;54.00;;;;;;5048646;28;20569;-76
2023/06/05 12:51:27;;;;;;;2.63;2.42;;;26.40;55.40;;;;;;5050977;28;20274;-76
2023/06/05 12:53:54;;;;;;;2.40;2.30;;;27.10;54.30;;;;;;5049862;28;20186;-77